sensor_id;sensor_type;location;lat;lon;timestamp;P1;durP1;ratioP1;P2;durP2;ratioP2
46863;SDS011;32598;50.204;6.408;2023-11-18T00:01:30;36.95;;;22.98;;
46863;SDS011;32598;50.204;6.408;2023-11-18T00:03:56;42.05;;;24.35;;
46863;SDS011;32598;50.204;6.408;2023-11-18T00:06:21;40.78;;;24.60;;
46863;SDS011;32598;50.204;6.408;2023-11-18T00:08:46;41.95;;;25.05;;
46863;SDS011;32598;50.204;6.408;2023-11-18T00:11:11;40.80;;;25.60;;
46863;SDS011;32598;50.204;6.408;2023-11-18T00:13:39;45.35;;;26.98;;
46863;SDS011;32598;50.204;6.408;2023-11-18T00:16:05;39.65;;;26.42;;
46863;SDS011;32598;50.204;6.408;2023-11-18T00:18:30;43.20;;;25.75;;
46863;SDS011;32598;50.204;6.408;2023-11-18T00:20:56;40.40;;;25.20;;
46863;SDS011;32598;50.204;6.408;2023-11-18T00:23:22;44.28;;;26.63;;
46863;SDS011;32598;50.204;6.408;2023-11-18T00:25:47;43.10;;;25.23;;
46863;SDS011;32598;50.204;6.408;2023-11-18T00:28:12;45.53;;;25.90;;
46863;SDS011;32598;50.204;6.408;2023-11-18T00:30:37;39.47;;;24.52;;
46863;SDS011;32598;50.204;6.408;2023-11-18T00:33:03;39.13;;;24.87;;
46863;SDS011;32598;50.204;6.408;2023-11-18T00:35:28;37.95;;;24.48;;
46863;SDS011;32598;50.204;6.408;2023-11-18T00:37:56;37.30;;;23.50;;
46863;SDS011;32598;50.204;6.408;2023-11-18T00:40:21;38.70;;;24.63;;
46863;SDS011;32598;50.204;6.408;2023-11-18T00:42:47;35.10;;;23.42;;
46863;SDS011;32598;50.204;6.408;2023-11-18T00:45:12;39.27;;;25.27;;
46863;SDS011;32598;50.204;6.408;2023-11-18T00:47:40;39.90;;;25.77;;
46863;SDS011;32598;50.204;6.408;2023-11-18T00:50:08;36.05;;;24.35;;
46863;SDS011;32598;50.204;6.408;2023-11-18T00:52:34;36.70;;;24.25;;
46863;SDS011;32598;50.204;6.408;2023-11-18T00:54:59;36.47;;;23.58;;
46863;SDS011;32598;50.204;6.408;2023-11-18T00:57:25;37.72;;;24.25;;
46863;SDS011;32598;50.204;6.408;2023-11-18T00:59:50;35.78;;;23.42;;
46863;SDS011;32598;50.204;6.408;2023-11-18T01:02:16;33.93;;;22.57;;
46863;SDS011;32598;50.204;6.408;2023-11-18T01:04:43;34.50;;;22.80;;
46863;SDS011;32598;50.204;6.408;2023-11-18T01:07:09;38.83;;;25.60;;
46863;SDS011;32598;50.204;6.408;2023-11-18T01:09:35;36.95;;;24.52;;
46863;SDS011;32598;50.204;6.408;2023-11-18T01:12:03;36.53;;;22.95;;
46863;SDS011;32598;50.204;6.408;2023-11-18T01:14:29;37.03;;;24.52;;
46863;SDS011;32598;50.204;6.408;2023-11-18T01:16:54;37.53;;;22.95;;
46863;SDS011;32598;50.204;6.408;2023-11-18T01:19:19;37.57;;;22.87;;
46863;SDS011;32598;50.204;6.408;2023-11-18T01:21:45;34.75;;;21.77;;
46863;SDS011;32598;50.204;6.408;2023-11-18T01:24:10;33.47;;;21.63;;
46863;SDS011;32598;50.204;6.408;2023-11-18T01:26:36;34.13;;;22.63;;
46863;SDS011;32598;50.204;6.408;2023-11-18T01:29:01;35.13;;;21.95;;
46863;SDS011;32598;50.204;6.408;2023-11-18T01:31:28;36.72;;;22.13;;
46863;SDS011;32598;50.204;6.408;2023-11-18T01:33:53;37.20;;;21.70;;
46863;SDS011;32598;50.204;6.408;2023-11-18T01:36:20;30.98;;;20.88;;
46863;SDS011;32598;50.204;6.408;2023-11-18T01:38:45;33.92;;;21.33;;
46863;SDS011;32598;50.204;6.408;2023-11-18T01:41:11;42.85;;;20.83;;
46863;SDS011;32598;50.204;6.408;2023-11-18T01:43:36;31.23;;;19.33;;
46863;SDS011;32598;50.204;6.408;2023-11-18T01:46:02;30.83;;;19.48;;
46863;SDS011;32598;50.204;6.408;2023-11-18T01:48:28;56.53;;;20.88;;
46863;SDS011;32598;50.204;6.408;2023-11-18T01:50:55;35.65;;;18.75;;
46863;SDS011;32598;50.204;6.408;2023-11-18T01:53:21;32.65;;;18.63;;
46863;SDS011;32598;50.204;6.408;2023-11-18T01:55:47;41.55;;;20.17;;
46863;SDS011;32598;50.204;6.408;2023-11-18T01:58:13;39.75;;;19.80;;
46863;SDS011;32598;50.204;6.408;2023-11-18T02:00:44;38.15;;;19.95;;
46863;SDS011;32598;50.204;6.408;2023-11-18T02:03:11;33.03;;;20.95;;
46863;SDS011;32598;50.204;6.408;2023-11-18T02:05:36;32.28;;;20.63;;
46863;SDS011;32598;50.204;6.408;2023-11-18T02:08:02;31.30;;;19.55;;
46863;SDS011;32598;50.204;6.408;2023-11-18T02:10:29;33.35;;;21.30;;
46863;SDS011;32598;50.204;6.408;2023-11-18T02:13:02;45.47;;;22.13;;
46863;SDS011;32598;50.204;6.408;2023-11-18T02:15:31;56.28;;;21.95;;
46863;SDS011;32598;50.204;6.408;2023-11-18T02:17:58;36.85;;;20.58;;
46863;SDS011;32598;50.204;6.408;2023-11-18T02:20:25;45.25;;;20.10;;
46863;SDS011;32598;50.204;6.408;2023-11-18T02:22:51;43.05;;;20.88;;
46863;SDS011;32598;50.204;6.408;2023-11-18T02:25:17;29.33;;;19.88;;
46863;SDS011;32598;50.204;6.408;2023-11-18T02:27:43;29.65;;;18.73;;
46863;SDS011;32598;50.204;6.408;2023-11-18T02:30:08;80.18;;;21.88;;
46863;SDS011;32598;50.204;6.408;2023-11-18T02:32:39;47.33;;;18.95;;
46863;SDS011;32598;50.204;6.408;2023-11-18T02:35:29;24.95;;;17.70;;
46863;SDS011;32598;50.204;6.408;2023-11-18T02:37:55;44.60;;;20.27;;
46863;SDS011;32598;50.204;6.408;2023-11-18T02:40:23;40.53;;;19.75;;
46863;SDS011;32598;50.204;6.408;2023-11-18T02:42:50;59.65;;;19.58;;
46863;SDS011;32598;50.204;6.408;2023-11-18T02:45:18;103.65;;;20.35;;
46863;SDS011;32598;50.204;6.408;2023-11-18T02:47:46;171.48;;;27.77;;
46863;SDS011;32598;50.204;6.408;2023-11-18T02:50:12;27.25;;;17.95;;
46863;SDS011;32598;50.204;6.408;2023-11-18T02:52:38;44.00;;;18.67;;
46863;SDS011;32598;50.204;6.408;2023-11-18T02:55:04;46.67;;;19.30;;
46863;SDS011;32598;50.204;6.408;2023-11-18T02:57:31;26.80;;;17.70;;
46863;SDS011;32598;50.204;6.408;2023-11-18T02:59:57;23.15;;;17.38;;
46863;SDS011;32598;50.204;6.408;2023-11-18T03:02:25;59.70;;;18.33;;
46863;SDS011;32598;50.204;6.408;2023-11-18T03:04:52;44.17;;;18.83;;
46863;SDS011;32598;50.204;6.408;2023-11-18T03:07:17;94.70;;;22.85;;
46863;SDS011;32598;50.204;6.408;2023-11-18T03:09:43;34.35;;;19.30;;
46863;SDS011;32598;50.204;6.408;2023-11-18T03:12:08;54.75;;;18.55;;
46863;SDS011;32598;50.204;6.408;2023-11-18T03:14:33;46.28;;;18.65;;
46863;SDS011;32598;50.204;6.408;2023-11-18T03:16:59;27.27;;;18.40;;
46863;SDS011;32598;50.204;6.408;2023-11-18T03:19:25;27.70;;;17.77;;
46863;SDS011;32598;50.204;6.408;2023-11-18T03:21:51;28.00;;;19.02;;
46863;SDS011;32598;50.204;6.408;2023-11-18T03:24:17;35.75;;;19.27;;
46863;SDS011;32598;50.204;6.408;2023-11-18T03:26:42;25.13;;;17.50;;
46863;SDS011;32598;50.204;6.408;2023-11-18T03:29:07;23.38;;;17.00;;
46863;SDS011;32598;50.204;6.408;2023-11-18T03:31:35;23.92;;;16.38;;
46863;SDS011;32598;50.204;6.408;2023-11-18T03:34:01;22.58;;;16.40;;
46863;SDS011;32598;50.204;6.408;2023-11-18T03:36:26;25.80;;;16.43;;
46863;SDS011;32598;50.204;6.408;2023-11-18T03:38:51;23.25;;;15.50;;
46863;SDS011;32598;50.204;6.408;2023-11-18T03:41:16;25.05;;;15.55;;
46863;SDS011;32598;50.204;6.408;2023-11-18T03:43:42;25.03;;;15.80;;
46863;SDS011;32598;50.204;6.408;2023-11-18T03:46:07;24.10;;;14.27;;
46863;SDS011;32598;50.204;6.408;2023-11-18T03:48:32;24.85;;;15.23;;
46863;SDS011;32598;50.204;6.408;2023-11-18T03:50:58;22.15;;;16.00;;
46863;SDS011;32598;50.204;6.408;2023-11-18T03:53:23;23.00;;;15.77;;
46863;SDS011;32598;50.204;6.408;2023-11-18T03:55:48;19.95;;;14.80;;
46863;SDS011;32598;50.204;6.408;2023-11-18T03:58:13;23.13;;;14.93;;
46863;SDS011;32598;50.204;6.408;2023-11-18T04:00:38;23.00;;;15.20;;
46863;SDS011;32598;50.204;6.408;2023-11-18T04:03:03;21.17;;;14.77;;
46863;SDS011;32598;50.204;6.408;2023-11-18T04:05:32;22.52;;;15.30;;
46863;SDS011;32598;50.204;6.408;2023-11-18T04:07:58;22.27;;;15.18;;
46863;SDS011;32598;50.204;6.408;2023-11-18T04:10:23;20.77;;;14.10;;
46863;SDS011;32598;50.204;6.408;2023-11-18T04:12:48;24.37;;;15.63;;
46863;SDS011;32598;50.204;6.408;2023-11-18T04:15:13;21.40;;;14.87;;
46863;SDS011;32598;50.204;6.408;2023-11-18T04:17:39;25.95;;;16.08;;
46863;SDS011;32598;50.204;6.408;2023-11-18T04:20:05;22.05;;;15.80;;
46863;SDS011;32598;50.204;6.408;2023-11-18T04:22:37;25.02;;;16.65;;
46863;SDS011;32598;50.204;6.408;2023-11-18T04:25:03;26.08;;;15.23;;
46863;SDS011;32598;50.204;6.408;2023-11-18T04:27:28;25.42;;;16.55;;
46863;SDS011;32598;50.204;6.408;2023-11-18T04:29:53;23.50;;;16.20;;
46863;SDS011;32598;50.204;6.408;2023-11-18T04:32:18;27.63;;;16.42;;
46863;SDS011;32598;50.204;6.408;2023-11-18T04:34:44;28.45;;;17.10;;
46863;SDS011;32598;50.204;6.408;2023-11-18T04:37:09;61.03;;;21.20;;
46863;SDS011;32598;50.204;6.408;2023-11-18T04:39:34;87.60;;;26.58;;
46863;SDS011;32598;50.204;6.408;2023-11-18T04:42:00;198.10;;;25.95;;
46863;SDS011;32598;50.204;6.408;2023-11-18T04:44:26;42.33;;;17.33;;
46863;SDS011;32598;50.204;6.408;2023-11-18T04:46:51;286.83;;;31.50;;
46863;SDS011;32598;50.204;6.408;2023-11-18T04:49:17;192.27;;;25.83;;
46863;SDS011;32598;50.204;6.408;2023-11-18T04:51:42;234.77;;;30.93;;
46863;SDS011;32598;50.204;6.408;2023-11-18T04:54:07;143.27;;;23.07;;
46863;SDS011;32598;50.204;6.408;2023-11-18T04:56:35;46.53;;;20.25;;
46863;SDS011;32598;50.204;6.408;2023-11-18T04:59:02;118.43;;;25.80;;
46863;SDS011;32598;50.204;6.408;2023-11-18T05:01:27;283.05;;;33.15;;
46863;SDS011;32598;50.204;6.408;2023-11-18T05:03:52;111.43;;;23.02;;
46863;SDS011;32598;50.204;6.408;2023-11-18T05:06:17;68.10;;;19.55;;
46863;SDS011;32598;50.204;6.408;2023-11-18T05:08:45;42.85;;;17.65;;
46863;SDS011;32598;50.204;6.408;2023-11-18T05:11:10;86.78;;;20.58;;
46863;SDS011;32598;50.204;6.408;2023-11-18T05:13:35;65.93;;;19.55;;
46863;SDS011;32598;50.204;6.408;2023-11-18T05:16:00;57.70;;;18.80;;
46863;SDS011;32598;50.204;6.408;2023-11-18T05:18:26;100.13;;;21.73;;
46863;SDS011;32598;50.204;6.408;2023-11-18T05:20:54;43.13;;;18.83;;
46863;SDS011;32598;50.204;6.408;2023-11-18T05:23:19;126.65;;;21.80;;
46863;SDS011;32598;50.204;6.408;2023-11-18T05:25:44;76.27;;;21.97;;
46863;SDS011;32598;50.204;6.408;2023-11-18T05:28:10;47.73;;;17.17;;
46863;SDS011;32598;50.204;6.408;2023-11-18T05:30:36;43.92;;;17.90;;
46863;SDS011;32598;50.204;6.408;2023-11-18T05:33:04;47.20;;;17.98;;
46863;SDS011;32598;50.204;6.408;2023-11-18T05:35:32;94.85;;;20.05;;
46863;SDS011;32598;50.204;6.408;2023-11-18T05:37:58;77.88;;;18.77;;
46863;SDS011;32598;50.204;6.408;2023-11-18T05:40:23;33.40;;;15.70;;
46863;SDS011;32598;50.204;6.408;2023-11-18T05:42:50;46.75;;;16.33;;
46863;SDS011;32598;50.204;6.408;2023-11-18T05:45:17;36.35;;;16.52;;
46863;SDS011;32598;50.204;6.408;2023-11-18T05:47:56;36.60;;;14.77;;
46863;SDS011;32598;50.204;6.408;2023-11-18T05:50:22;41.47;;;16.10;;
46863;SDS011;32598;50.204;6.408;2023-11-18T05:52:49;200.73;;;23.52;;
46863;SDS011;32598;50.204;6.408;2023-11-18T05:55:14;75.35;;;18.90;;
46863;SDS011;32598;50.204;6.408;2023-11-18T05:57:39;32.45;;;15.10;;
46863;SDS011;32598;50.204;6.408;2023-11-18T06:00:05;71.22;;;16.67;;
46863;SDS011;32598;50.204;6.408;2023-11-18T06:02:30;93.28;;;18.15;;
46863;SDS011;32598;50.204;6.408;2023-11-18T06:04:56;103.40;;;16.55;;
46863;SDS011;32598;50.204;6.408;2023-11-18T06:07:22;82.68;;;16.10;;
46863;SDS011;32598;50.204;6.408;2023-11-18T06:09:48;111.35;;;19.90;;
46863;SDS011;32598;50.204;6.408;2023-11-18T06:12:13;78.57;;;16.70;;
46863;SDS011;32598;50.204;6.408;2023-11-18T06:14:38;103.43;;;18.85;;
46863;SDS011;32598;50.204;6.408;2023-11-18T06:17:04;133.38;;;19.58;;
46863;SDS011;32598;50.204;6.408;2023-11-18T06:19:32;40.47;;;14.88;;
46863;SDS011;32598;50.204;6.408;2023-11-18T06:21:57;67.80;;;15.93;;
46863;SDS011;32598;50.204;6.408;2023-11-18T06:24:22;112.57;;;19.25;;
46863;SDS011;32598;50.204;6.408;2023-11-18T06:26:47;102.20;;;18.02;;
46863;SDS011;32598;50.204;6.408;2023-11-18T06:29:14;123.10;;;19.67;;
46863;SDS011;32598;50.204;6.408;2023-11-18T06:31:40;104.28;;;20.17;;
46863;SDS011;32598;50.204;6.408;2023-11-18T06:34:05;89.00;;;19.02;;
46863;SDS011;32598;50.204;6.408;2023-11-18T06:36:30;134.50;;;19.63;;
46863;SDS011;32598;50.204;6.408;2023-11-18T06:38:56;112.90;;;20.50;;
46863;SDS011;32598;50.204;6.408;2023-11-18T06:41:21;79.72;;;18.98;;
46863;SDS011;32598;50.204;6.408;2023-11-18T06:43:58;93.05;;;19.05;;
46863;SDS011;32598;50.204;6.408;2023-11-18T06:46:29;103.65;;;19.48;;
46863;SDS011;32598;50.204;6.408;2023-11-18T06:48:58;120.15;;;18.45;;
46863;SDS011;32598;50.204;6.408;2023-11-18T06:51:24;93.13;;;19.27;;
46863;SDS011;32598;50.204;6.408;2023-11-18T06:53:50;115.80;;;20.00;;
46863;SDS011;32598;50.204;6.408;2023-11-18T06:56:15;188.60;;;22.25;;
46863;SDS011;32598;50.204;6.408;2023-11-18T06:58:41;46.33;;;18.60;;
46863;SDS011;32598;50.204;6.408;2023-11-18T07:01:07;55.90;;;18.92;;
46863;SDS011;32598;50.204;6.408;2023-11-18T07:03:33;59.95;;;19.33;;
46863;SDS011;32598;50.204;6.408;2023-11-18T07:05:58;57.53;;;18.80;;
46863;SDS011;32598;50.204;6.408;2023-11-18T07:08:24;53.55;;;18.25;;
46863;SDS011;32598;50.204;6.408;2023-11-18T07:10:49;65.93;;;19.45;;
46863;SDS011;32598;50.204;6.408;2023-11-18T07:13:14;49.10;;;19.65;;
46863;SDS011;32598;50.204;6.408;2023-11-18T07:15:41;45.47;;;18.73;;
46863;SDS011;32598;50.204;6.408;2023-11-18T07:18:06;49.40;;;17.35;;
46863;SDS011;32598;50.204;6.408;2023-11-18T07:20:33;123.18;;;21.25;;
46863;SDS011;32598;50.204;6.408;2023-11-18T07:22:59;165.50;;;24.27;;
46863;SDS011;32598;50.204;6.408;2023-11-18T07:25:24;57.47;;;17.67;;
46863;SDS011;32598;50.204;6.408;2023-11-18T07:27:49;48.03;;;17.33;;
46863;SDS011;32598;50.204;6.408;2023-11-18T07:30:15;65.13;;;19.37;;
46863;SDS011;32598;50.204;6.408;2023-11-18T07:32:40;61.70;;;18.80;;
46863;SDS011;32598;50.204;6.408;2023-11-18T07:35:05;63.15;;;18.38;;
46863;SDS011;32598;50.204;6.408;2023-11-18T07:37:34;47.67;;;18.00;;
46863;SDS011;32598;50.204;6.408;2023-11-18T07:39:59;137.93;;;22.88;;
46863;SDS011;32598;50.204;6.408;2023-11-18T07:42:25;45.75;;;15.98;;
46863;SDS011;32598;50.204;6.408;2023-11-18T07:44:50;39.00;;;15.00;;
46863;SDS011;32598;50.204;6.408;2023-11-18T07:47:16;35.78;;;15.30;;
46863;SDS011;32598;50.204;6.408;2023-11-18T07:49:41;42.65;;;15.55;;
46863;SDS011;32598;50.204;6.408;2023-11-18T07:52:07;48.13;;;16.15;;
46863;SDS011;32598;50.204;6.408;2023-11-18T07:54:32;44.63;;;16.27;;
46863;SDS011;32598;50.204;6.408;2023-11-18T07:56:57;38.25;;;15.30;;
46863;SDS011;32598;50.204;6.408;2023-11-18T07:59:23;37.13;;;15.10;;
46863;SDS011;32598;50.204;6.408;2023-11-18T08:01:48;42.13;;;15.75;;
46863;SDS011;32598;50.204;6.408;2023-11-18T08:04:15;50.83;;;17.17;;
46863;SDS011;32598;50.204;6.408;2023-11-18T08:06:40;48.65;;;17.23;;
46863;SDS011;32598;50.204;6.408;2023-11-18T08:09:05;42.45;;;17.55;;
46863;SDS011;32598;50.204;6.408;2023-11-18T08:11:36;32.75;;;16.52;;
46863;SDS011;32598;50.204;6.408;2023-11-18T08:14:01;38.80;;;17.35;;
46863;SDS011;32598;50.204;6.408;2023-11-18T08:16:27;36.38;;;16.25;;
46863;SDS011;32598;50.204;6.408;2023-11-18T08:18:52;34.35;;;15.75;;
46863;SDS011;32598;50.204;6.408;2023-11-18T08:21:18;36.58;;;15.55;;
46863;SDS011;32598;50.204;6.408;2023-11-18T08:23:44;38.72;;;16.25;;
46863;SDS011;32598;50.204;6.408;2023-11-18T08:26:11;43.67;;;18.53;;
46863;SDS011;32598;50.204;6.408;2023-11-18T08:28:36;43.88;;;17.60;;
46863;SDS011;32598;50.204;6.408;2023-11-18T08:31:01;56.40;;;17.25;;
46863;SDS011;32598;50.204;6.408;2023-11-18T08:33:26;54.72;;;19.02;;
46863;SDS011;32598;50.204;6.408;2023-11-18T08:35:53;63.80;;;21.13;;
46863;SDS011;32598;50.204;6.408;2023-11-18T08:38:19;56.53;;;19.88;;
46863;SDS011;32598;50.204;6.408;2023-11-18T08:40:44;58.72;;;19.08;;
46863;SDS011;32598;50.204;6.408;2023-11-18T08:43:10;48.63;;;18.60;;
46863;SDS011;32598;50.204;6.408;2023-11-18T08:45:36;48.85;;;19.02;;
46863;SDS011;32598;50.204;6.408;2023-11-18T08:48:03;47.10;;;19.23;;
46863;SDS011;32598;50.204;6.408;2023-11-18T08:50:37;44.95;;;18.42;;
46863;SDS011;32598;50.204;6.408;2023-11-18T08:53:06;48.67;;;19.20;;
46863;SDS011;32598;50.204;6.408;2023-11-18T08:55:34;45.08;;;18.92;;
46863;SDS011;32598;50.204;6.408;2023-11-18T08:58:06;42.78;;;18.23;;
46863;SDS011;32598;50.204;6.408;2023-11-18T09:00:43;39.20;;;17.98;;
46863;SDS011;32598;50.204;6.408;2023-11-18T09:03:19;45.53;;;18.33;;
46863;SDS011;32598;50.204;6.408;2023-11-18T09:06:00;45.25;;;19.13;;
46863;SDS011;32598;50.204;6.408;2023-11-18T09:08:33;40.28;;;17.38;;
46863;SDS011;32598;50.204;6.408;2023-11-18T09:11:02;43.42;;;17.73;;
46863;SDS011;32598;50.204;6.408;2023-11-18T09:13:27;39.45;;;17.48;;
46863;SDS011;32598;50.204;6.408;2023-11-18T09:16:00;35.13;;;16.52;;
46863;SDS011;32598;50.204;6.408;2023-11-18T09:18:26;32.28;;;16.38;;
46863;SDS011;32598;50.204;6.408;2023-11-18T09:20:52;38.50;;;16.83;;
46863;SDS011;32598;50.204;6.408;2023-11-18T09:23:18;37.50;;;16.17;;
46863;SDS011;32598;50.204;6.408;2023-11-18T09:25:44;36.42;;;16.65;;
46863;SDS011;32598;50.204;6.408;2023-11-18T09:28:11;42.67;;;16.42;;
46863;SDS011;32598;50.204;6.408;2023-11-18T09:30:39;33.53;;;15.27;;
46863;SDS011;32598;50.204;6.408;2023-11-18T09:33:14;37.10;;;15.95;;
46863;SDS011;32598;50.204;6.408;2023-11-18T09:35:42;35.15;;;15.90;;
46863;SDS011;32598;50.204;6.408;2023-11-18T09:38:07;29.90;;;16.10;;
46863;SDS011;32598;50.204;6.408;2023-11-18T09:40:33;35.13;;;15.60;;
46863;SDS011;32598;50.204;6.408;2023-11-18T09:43:02;32.47;;;15.40;;
46863;SDS011;32598;50.204;6.408;2023-11-18T09:45:34;44.08;;;15.73;;
46863;SDS011;32598;50.204;6.408;2023-11-18T09:47:59;41.15;;;15.57;;
46863;SDS011;32598;50.204;6.408;2023-11-18T09:50:26;34.92;;;15.77;;
46863;SDS011;32598;50.204;6.408;2023-11-18T09:52:54;30.30;;;13.25;;
46863;SDS011;32598;50.204;6.408;2023-11-18T09:55:25;31.00;;;14.43;;
46863;SDS011;32598;50.204;6.408;2023-11-18T09:57:52;26.48;;;13.52;;
46863;SDS011;32598;50.204;6.408;2023-11-18T10:00:22;28.98;;;13.52;;
46863;SDS011;32598;50.204;6.408;2023-11-18T10:02:57;34.17;;;15.07;;
46863;SDS011;32598;50.204;6.408;2023-11-18T10:05:25;29.67;;;14.10;;
46863;SDS011;32598;50.204;6.408;2023-11-18T10:07:51;28.90;;;14.30;;
46863;SDS011;32598;50.204;6.408;2023-11-18T10:10:17;24.73;;;13.40;;
46863;SDS011;32598;50.204;6.408;2023-11-18T10:12:45;32.13;;;14.15;;
46863;SDS011;32598;50.204;6.408;2023-11-18T10:15:11;30.85;;;14.23;;
46863;SDS011;32598;50.204;6.408;2023-11-18T10:17:47;32.88;;;15.02;;
46863;SDS011;32598;50.204;6.408;2023-11-18T10:20:44;30.70;;;13.57;;
46863;SDS011;32598;50.204;6.408;2023-11-18T10:23:15;32.35;;;13.90;;
46863;SDS011;32598;50.204;6.408;2023-11-18T10:25:47;25.70;;;13.55;;
46863;SDS011;32598;50.204;6.408;2023-11-18T10:28:25;35.03;;;13.57;;
46863;SDS011;32598;50.204;6.408;2023-11-18T10:31:01;28.25;;;14.10;;
46863;SDS011;32598;50.204;6.408;2023-11-18T10:33:31;28.02;;;12.75;;
46863;SDS011;32598;50.204;6.408;2023-11-18T10:35:56;26.10;;;13.30;;
46863;SDS011;32598;50.204;6.408;2023-11-18T10:38:22;22.52;;;12.50;;
46863;SDS011;32598;50.204;6.408;2023-11-18T10:40:53;23.65;;;12.35;;
46863;SDS011;32598;50.204;6.408;2023-11-18T10:43:20;22.42;;;11.50;;
46863;SDS011;32598;50.204;6.408;2023-11-18T10:45:47;22.52;;;11.23;;
46863;SDS011;32598;50.204;6.408;2023-11-18T10:48:13;22.60;;;11.00;;
46863;SDS011;32598;50.204;6.408;2023-11-18T10:50:45;19.10;;;10.20;;
46863;SDS011;32598;50.204;6.408;2023-11-18T10:53:10;21.05;;;10.90;;
46863;SDS011;32598;50.204;6.408;2023-11-18T10:55:38;24.88;;;11.18;;
46863;SDS011;32598;50.204;6.408;2023-11-18T10:58:05;21.27;;;11.38;;
46863;SDS011;32598;50.204;6.408;2023-11-18T11:00:45;17.92;;;8.95;;
46863;SDS011;32598;50.204;6.408;2023-11-18T11:03:11;16.60;;;9.27;;
46863;SDS011;32598;50.204;6.408;2023-11-18T11:05:39;16.95;;;9.65;;
46863;SDS011;32598;50.204;6.408;2023-11-18T11:08:06;17.60;;;9.60;;
46863;SDS011;32598;50.204;6.408;2023-11-18T11:10:32;20.98;;;11.13;;
46863;SDS011;32598;50.204;6.408;2023-11-18T11:12:59;15.38;;;10.40;;
46863;SDS011;32598;50.204;6.408;2023-11-18T11:15:30;18.63;;;11.10;;
46863;SDS011;32598;50.204;6.408;2023-11-18T11:17:58;18.90;;;11.20;;
46863;SDS011;32598;50.204;6.408;2023-11-18T11:20:34;16.98;;;10.32;;
46863;SDS011;32598;50.204;6.408;2023-11-18T11:23:11;17.65;;;10.13;;
46863;SDS011;32598;50.204;6.408;2023-11-18T11:28:24;16.67;;;8.98;;
46863;SDS011;32598;50.204;6.408;2023-11-18T11:33:29;16.38;;;8.85;;
46863;SDS011;32598;50.204;6.408;2023-11-18T11:36:02;17.85;;;8.25;;
46863;SDS011;32598;50.204;6.408;2023-11-18T11:38:27;15.00;;;8.50;;
46863;SDS011;32598;50.204;6.408;2023-11-18T11:40:54;14.57;;;8.45;;
46863;SDS011;32598;50.204;6.408;2023-11-18T11:43:20;20.90;;;8.88;;
46863;SDS011;32598;50.204;6.408;2023-11-18T11:45:52;17.75;;;10.02;;
46863;SDS011;32598;50.204;6.408;2023-11-18T11:48:20;19.73;;;9.25;;
46863;SDS011;32598;50.204;6.408;2023-11-18T11:53:26;20.23;;;9.48;;
46863;SDS011;32598;50.204;6.408;2023-11-18T11:55:54;17.42;;;9.57;;
46863;SDS011;32598;50.204;6.408;2023-11-18T11:58:30;20.52;;;9.20;;
46863;SDS011;32598;50.204;6.408;2023-11-18T12:00:59;19.60;;;9.15;;
46863;SDS011;32598;50.204;6.408;2023-11-18T12:03:26;13.70;;;8.65;;
46863;SDS011;32598;50.204;6.408;2023-11-18T12:05:54;12.95;;;7.07;;
46863;SDS011;32598;50.204;6.408;2023-11-18T12:08:21;12.52;;;7.18;;
46863;SDS011;32598;50.204;6.408;2023-11-18T12:10:53;13.05;;;6.63;;
46863;SDS011;32598;50.204;6.408;2023-11-18T12:13:19;14.90;;;7.82;;
46863;SDS011;32598;50.204;6.408;2023-11-18T12:15:48;12.55;;;6.93;;
46863;SDS011;32598;50.204;6.408;2023-11-18T12:18:19;11.85;;;6.63;;
46863;SDS011;32598;50.204;6.408;2023-11-18T12:20:47;12.43;;;6.05;;
46863;SDS011;32598;50.204;6.408;2023-11-18T12:23:12;14.73;;;6.30;;
46863;SDS011;32598;50.204;6.408;2023-11-18T12:25:43;10.15;;;6.22;;
46863;SDS011;32598;50.204;6.408;2023-11-18T12:28:10;12.70;;;6.05;;
46863;SDS011;32598;50.204;6.408;2023-11-18T12:30:40;13.35;;;6.07;;
46863;SDS011;32598;50.204;6.408;2023-11-18T12:33:09;12.80;;;6.65;;
46863;SDS011;32598;50.204;6.408;2023-11-18T12:41:10;14.25;;;5.65;;
46863;SDS011;32598;50.204;6.408;2023-11-18T12:49:09;11.10;;;6.13;;
46863;SDS011;32598;50.204;6.408;2023-11-18T12:51:40;13.38;;;6.10;;
46863;SDS011;32598;50.204;6.408;2023-11-18T12:54:05;9.80;;;5.72;;
46863;SDS011;32598;50.204;6.408;2023-11-18T12:56:32;13.30;;;7.25;;
46863;SDS011;32598;50.204;6.408;2023-11-18T12:58:57;13.48;;;5.93;;
46863;SDS011;32598;50.204;6.408;2023-11-18T13:01:23;12.47;;;6.43;;
46863;SDS011;32598;50.204;6.408;2023-11-18T13:03:48;13.65;;;6.38;;
46863;SDS011;32598;50.204;6.408;2023-11-18T13:06:13;18.45;;;6.63;;
46863;SDS011;32598;50.204;6.408;2023-11-18T13:08:39;16.63;;;6.80;;
46863;SDS011;32598;50.204;6.408;2023-11-18T13:11:04;12.23;;;7.13;;
46863;SDS011;32598;50.204;6.408;2023-11-18T13:13:39;16.02;;;7.22;;
46863;SDS011;32598;50.204;6.408;2023-11-18T13:16:05;13.32;;;7.15;;
46863;SDS011;32598;50.204;6.408;2023-11-18T13:18:46;12.73;;;7.13;;
46863;SDS011;32598;50.204;6.408;2023-11-18T13:21:15;13.45;;;6.75;;
46863;SDS011;32598;50.204;6.408;2023-11-18T13:23:47;13.00;;;6.65;;
46863;SDS011;32598;50.204;6.408;2023-11-18T13:26:13;14.90;;;6.90;;
46863;SDS011;32598;50.204;6.408;2023-11-18T13:28:38;16.92;;;7.38;;
46863;SDS011;32598;50.204;6.408;2023-11-18T13:31:08;15.57;;;7.47;;
46863;SDS011;32598;50.204;6.408;2023-11-18T13:33:40;11.30;;;6.32;;
46863;SDS011;32598;50.204;6.408;2023-11-18T13:36:06;11.82;;;6.47;;
46863;SDS011;32598;50.204;6.408;2023-11-18T13:38:31;11.80;;;6.82;;
46863;SDS011;32598;50.204;6.408;2023-11-18T13:40:56;13.73;;;7.10;;
46863;SDS011;32598;50.204;6.408;2023-11-18T13:43:22;12.00;;;6.70;;
46863;SDS011;32598;50.204;6.408;2023-11-18T13:45:51;11.90;;;5.40;;
46863;SDS011;32598;50.204;6.408;2023-11-18T13:48:17;13.82;;;6.13;;
46863;SDS011;32598;50.204;6.408;2023-11-18T13:50:42;12.40;;;5.73;;
46863;SDS011;32598;50.204;6.408;2023-11-18T13:53:07;12.68;;;6.43;;
46863;SDS011;32598;50.204;6.408;2023-11-18T13:55:33;11.00;;;5.07;;
46863;SDS011;32598;50.204;6.408;2023-11-18T13:57:58;11.15;;;5.50;;
46863;SDS011;32598;50.204;6.408;2023-11-18T14:00:27;8.18;;;4.70;;
46863;SDS011;32598;50.204;6.408;2023-11-18T14:02:55;10.35;;;4.80;;
46863;SDS011;32598;50.204;6.408;2023-11-18T14:05:33;8.40;;;4.40;;
46863;SDS011;32598;50.204;6.408;2023-11-18T14:07:58;9.32;;;4.43;;
46863;SDS011;32598;50.204;6.408;2023-11-18T14:10:24;8.13;;;4.82;;
46863;SDS011;32598;50.204;6.408;2023-11-18T14:13:00;8.45;;;4.68;;
46863;SDS011;32598;50.204;6.408;2023-11-18T14:15:25;8.10;;;4.22;;
46863;SDS011;32598;50.204;6.408;2023-11-18T14:17:51;6.80;;;3.55;;
46863;SDS011;32598;50.204;6.408;2023-11-18T14:20:17;7.72;;;4.13;;
46863;SDS011;32598;50.204;6.408;2023-11-18T14:22:42;7.10;;;3.70;;
46863;SDS011;32598;50.204;6.408;2023-11-18T14:25:08;6.68;;;3.70;;
46863;SDS011;32598;50.204;6.408;2023-11-18T14:27:33;7.47;;;3.50;;
46863;SDS011;32598;50.204;6.408;2023-11-18T14:29:58;6.00;;;3.50;;
46863;SDS011;32598;50.204;6.408;2023-11-18T14:32:23;6.17;;;3.60;;
46863;SDS011;32598;50.204;6.408;2023-11-18T14:34:48;7.37;;;3.50;;
46863;SDS011;32598;50.204;6.408;2023-11-18T14:37:14;7.32;;;3.10;;
46863;SDS011;32598;50.204;6.408;2023-11-18T14:39:39;6.28;;;3.42;;
46863;SDS011;32598;50.204;6.408;2023-11-18T14:42:05;6.88;;;3.20;;